createdAt,value
2019-06-20T00:01:48.795Z,20.36
2019-06-20T00:04:17.365Z,20.32
2019-06-20T00:06:45.845Z,20.29
2019-06-20T00:09:14.847Z,20.29
2019-06-20T00:11:43.802Z,20.27
2019-06-20T00:14:12.608Z,20.27
2019-06-20T00:16:41.144Z,20.27
2019-06-20T00:19:09.968Z,20.20
2019-06-20T00:21:38.558Z,20.12
2019-06-20T00:24:07.040Z,20.10
2019-06-20T00:26:35.625Z,20.06
2019-06-20T00:29:04.342Z,20.05
2019-06-20T00:31:33.177Z,20.05
2019-06-20T00:34:01.730Z,20.04
2019-06-20T00:36:30.312Z,20.03
2019-06-20T00:38:58.875Z,20.05
2019-06-20T00:41:27.466Z,20.06
2019-06-20T00:43:56.004Z,20.03
2019-06-20T00:46:24.535Z,19.99
2019-06-20T00:48:53.350Z,20.02
2019-06-20T00:51:21.988Z,20.03
2019-06-20T00:53:50.871Z,20.08
2019-06-20T00:56:19.783Z,20.04
2019-06-20T00:58:48.281Z,20.00
2019-06-20T01:01:16.813Z,19.99
2019-06-20T01:03:45.421Z,20.01
2019-06-20T01:06:13.832Z,20.03
2019-06-20T01:08:42.472Z,20.04
2019-06-20T01:11:11.378Z,20.05
2019-06-20T01:13:39.956Z,19.98
2019-06-20T01:16:08.505Z,19.99
2019-06-20T01:18:37.086Z,19.99
2019-06-20T01:21:06.007Z,19.95
2019-06-20T01:23:34.511Z,19.93
2019-06-20T01:26:03.099Z,19.94
2019-06-20T01:28:31.538Z,19.94
2019-06-20T01:31:00.312Z,19.92
2019-06-20T01:33:28.841Z,19.90
2019-06-20T01:35:57.321Z,19.89
2019-06-20T01:38:25.888Z,19.84
2019-06-20T01:40:54.433Z,19.84
2019-06-20T01:43:23.271Z,19.82
2019-06-20T01:45:52.032Z,19.79
2019-06-20T01:48:20.550Z,19.79
2019-06-20T01:50:49.069Z,19.80
2019-06-20T01:53:17.634Z,19.76
2019-06-20T01:55:46.168Z,19.69
2019-06-20T01:58:14.906Z,19.67
2019-06-20T02:00:45.855Z,19.71
2019-06-20T02:03:14.762Z,19.71
2019-06-20T02:05:43.648Z,19.72
2019-06-20T02:08:12.191Z,19.75
2019-06-20T02:10:41.050Z,19.73
2019-06-20T02:13:09.552Z,19.69
2019-06-20T02:15:38.117Z,19.73
2019-06-20T02:18:06.618Z,19.73
2019-06-20T02:20:36.382Z,19.72
2019-06-20T02:23:05.184Z,19.69
2019-06-20T02:25:33.685Z,19.66
2019-06-20T02:28:02.291Z,19.66
2019-06-20T02:30:30.847Z,19.61
2019-06-20T02:32:59.416Z,18.96
2019-06-20T02:35:27.994Z,19.52
2019-06-20T02:37:56.546Z,19.53
2019-06-20T02:40:25.098Z,19.52
2019-06-20T02:42:53.596Z,19.51
2019-06-20T02:45:22.126Z,19.52
2019-06-20T02:47:50.670Z,19.47
2019-06-20T02:50:19.273Z,19.45
2019-06-20T02:52:48.133Z,19.49
2019-06-20T02:55:16.689Z,19.55
2019-06-20T02:57:45.169Z,19.57
2019-06-20T03:00:13.847Z,19.58
2019-06-20T03:02:42.350Z,19.57
2019-06-20T03:05:11.247Z,19.56
2019-06-20T03:07:39.771Z,19.54
2019-06-20T03:10:08.307Z,19.56
2019-06-20T03:12:37.148Z,19.56
2019-06-20T03:15:05.779Z,19.54
2019-06-20T03:17:34.340Z,19.53
2019-06-20T03:20:02.949Z,19.57
2019-06-20T03:22:31.628Z,19.60
2019-06-20T03:25:00.158Z,19.59
2019-06-20T03:27:28.673Z,19.59
2019-06-20T03:29:57.258Z,19.59
2019-06-20T03:32:25.841Z,19.57
2019-06-20T03:34:54.730Z,19.57
2019-06-20T03:37:23.308Z,19.53
2019-06-20T03:39:51.833Z,19.57
2019-06-20T03:42:20.377Z,19.60
2019-06-20T03:45:01.554Z,19.54
2019-06-20T03:47:19.557Z,19.57
2019-06-20T03:49:48.068Z,19.56
2019-06-20T03:52:16.658Z,19.56
2019-06-20T03:54:45.151Z,19.52
2019-06-20T03:57:14.013Z,19.51
2019-06-20T03:59:42.587Z,19.44
2019-06-20T04:02:11.347Z,19.43
2019-06-20T04:04:39.914Z,19.42
2019-06-20T04:07:08.409Z,19.40
2019-06-20T04:09:37.214Z,19.40
2019-06-20T04:12:05.773Z,19.31
2019-06-20T04:14:34.735Z,19.37
2019-06-20T04:17:03.239Z,19.37
2019-06-20T04:19:31.735Z,19.37
2019-06-20T04:22:00.625Z,19.41
2019-06-20T04:24:29.157Z,19.48
2019-06-20T04:26:57.732Z,19.59
2019-06-20T04:29:26.311Z,19.65
2019-06-20T04:31:55.193Z,19.56
2019-06-20T04:34:23.736Z,19.61
2019-06-20T04:36:52.320Z,19.73
2019-06-20T04:39:20.933Z,19.70
2019-06-20T04:41:49.723Z,19.66
2019-06-20T04:44:18.586Z,19.60
2019-06-20T04:46:53.131Z,19.55
2019-06-20T04:49:21.712Z,19.57
2019-06-20T04:51:50.503Z,19.55
2019-06-20T04:54:19.055Z,19.62
2019-06-20T04:56:47.909Z,19.69
2019-06-20T04:59:16.425Z,19.76
2019-06-20T05:01:44.939Z,19.69
2019-06-20T05:04:13.422Z,19.69
2019-06-20T05:06:42.325Z,19.75
2019-06-20T05:09:10.895Z,19.70
2019-06-20T05:11:39.414Z,19.77
2019-06-20T05:14:07.918Z,19.74
2019-06-20T05:16:36.513Z,19.68
2019-06-20T05:19:05.073Z,19.63
2019-06-20T05:21:33.654Z,19.60
2019-06-20T05:24:02.398Z,19.58
2019-06-20T05:26:31.344Z,19.58
2019-06-20T05:28:59.920Z,19.58
2019-06-20T05:31:28.491Z,19.61
2019-06-20T05:33:57.004Z,19.74
2019-06-20T05:36:25.748Z,19.83
2019-06-20T05:38:54.510Z,19.89
2019-06-20T05:41:23.299Z,19.98
2019-06-20T05:43:51.847Z,20.07
2019-06-20T05:46:20.447Z,20.08
2019-06-20T05:48:49.287Z,20.01
2019-06-20T05:51:17.899Z,20.03
2019-06-20T05:53:46.916Z,20.07
2019-06-20T05:56:15.465Z,20.20
2019-06-20T05:58:44.079Z,20.21
2019-06-20T06:01:12.603Z,20.17
2019-06-20T06:03:41.201Z,20.15
2019-06-20T06:06:09.788Z,20.15
2019-06-20T06:08:38.408Z,20.12
2019-06-20T06:11:06.937Z,20.01
2019-06-20T06:13:35.500Z,19.98
2019-06-20T06:16:04.183Z,20.05
2019-06-20T06:18:32.740Z,20.03
2019-06-20T06:21:01.309Z,20.05
2019-06-20T06:23:29.793Z,20.01
2019-06-20T06:25:58.670Z,19.98
2019-06-20T06:28:27.585Z,20.00
2019-06-20T06:30:56.132Z,20.03
2019-06-20T06:33:24.804Z,19.96
2019-06-20T06:35:53.752Z,20.00
2019-06-20T06:38:22.518Z,19.94
2019-06-20T06:40:51.096Z,19.88
2019-06-20T06:43:19.596Z,19.87
2019-06-20T06:45:48.226Z,19.82
2019-06-20T06:48:17.060Z,19.83
2019-06-20T06:50:45.572Z,19.90
2019-06-20T06:53:14.100Z,19.92
2019-06-20T06:55:43.310Z,19.92
2019-06-20T06:58:11.873Z,19.90
2019-06-20T07:00:40.930Z,19.84
2019-06-20T07:03:10.069Z,19.78
2019-06-20T07:05:38.643Z,19.73
2019-06-20T07:08:07.177Z,19.74
2019-06-20T07:10:35.748Z,19.73
2019-06-20T07:13:04.298Z,19.82
2019-06-20T07:15:32.827Z,19.89
2019-06-20T07:18:01.326Z,19.87
2019-06-20T07:20:29.929Z,19.90
2019-06-20T07:22:58.511Z,19.78
2019-06-20T07:25:27.435Z,19.71
2019-06-20T07:27:56.249Z,19.73
2019-06-20T07:30:25.159Z,19.77
2019-06-20T07:32:53.683Z,19.72
2019-06-20T07:35:22.224Z,19.61
2019-06-20T07:37:51.102Z,19.63
2019-06-20T07:40:20.050Z,19.60
2019-06-20T07:42:48.665Z,19.52
2019-06-20T07:45:17.162Z,19.52
2019-06-20T07:47:45.660Z,19.59
2019-06-20T07:50:14.243Z,19.57
2019-06-20T07:52:51.836Z,19.59
2019-06-20T07:55:13.492Z,19.57
2019-06-20T07:57:42.092Z,19.57
2019-06-20T08:00:10.611Z,19.58
2019-06-20T08:02:39.538Z,19.56
2019-06-20T08:05:08.039Z,19.58
2019-06-20T08:07:36.561Z,19.68
2019-06-20T08:10:06.517Z,19.74
2019-06-20T08:12:35.126Z,19.77
2019-06-20T08:15:14.588Z,19.70
2019-06-20T08:17:35.750Z,19.70
2019-06-20T08:20:05.651Z,19.71
2019-06-20T08:22:34.179Z,19.73
2019-06-20T08:25:03.325Z,19.84
2019-06-20T08:27:58.800Z,19.89
2019-06-20T08:30:28.701Z,19.97
2019-06-20T08:32:58.147Z,20.06
2019-06-20T08:35:28.329Z,20.19
2019-06-20T08:37:57.806Z,20.28
2019-06-20T08:40:27.677Z,20.24
2019-06-20T08:42:57.163Z,20.17
2019-06-20T08:45:27.073Z,20.12
2019-06-20T08:47:57.021Z,20.09
2019-06-20T08:50:25.984Z,20.12
2019-06-20T08:52:56.067Z,20.09
2019-06-20T08:55:24.907Z,20.06
2019-06-20T08:57:55.636Z,20.06
2019-06-20T09:00:23.846Z,20.10
2019-06-20T09:02:54.081Z,20.06
2019-06-20T09:05:23.038Z,20.03
2019-06-20T09:07:53.590Z,20.01
2019-06-20T09:10:26.601Z,20.07
2019-06-20T09:12:55.187Z,20.14
2019-06-20T09:15:23.723Z,20.14
2019-06-20T09:17:53.768Z,20.12
2019-06-20T09:20:22.656Z,20.21
2019-06-20T09:22:52.315Z,20.28
2019-06-20T09:25:21.914Z,20.34
2019-06-20T09:27:52.668Z,20.39
2019-06-20T09:30:20.964Z,20.35
2019-06-20T09:32:49.460Z,20.25
2019-06-20T09:35:18.330Z,20.28
2019-06-20T09:37:47.161Z,20.33
2019-06-20T09:40:15.743Z,20.33
2019-06-20T09:42:44.306Z,20.35
2019-06-20T09:45:12.840Z,20.37
2019-06-20T09:47:41.648Z,20.41
2019-06-20T09:50:10.258Z,20.53
2019-06-20T09:52:38.819Z,20.52
2019-06-20T09:55:07.365Z,20.47
2019-06-20T09:57:35.824Z,20.41
2019-06-20T10:00:09.992Z,20.45
2019-06-20T10:02:34.912Z,20.39
2019-06-20T10:05:03.656Z,20.25
2019-06-20T10:07:32.223Z,20.20
2019-06-20T10:10:01.153Z,20.21
2019-06-20T10:12:29.683Z,20.25
2019-06-20T10:14:58.239Z,20.22
2019-06-20T10:17:26.861Z,20.29
2019-06-20T10:19:56.336Z,20.33
2019-06-20T10:22:25.336Z,20.32
2019-06-20T10:24:53.853Z,20.29
2019-06-20T10:27:22.329Z,20.26
2019-06-20T10:29:51.304Z,20.17
2019-06-20T10:32:19.888Z,20.19
2019-06-20T10:34:48.501Z,20.29
2019-06-20T10:37:17.178Z,20.41
2019-06-20T10:39:46.137Z,20.60
2019-06-20T10:42:15.149Z,20.61
2019-06-20T10:44:44.297Z,20.69
2019-06-20T10:47:13.260Z,20.78
2019-06-20T10:49:43.038Z,20.83
2019-06-20T10:52:12.614Z,20.90
2019-06-20T10:54:42.227Z,20.94
2019-06-20T10:57:11.639Z,20.82
2019-06-20T10:59:41.156Z,20.81
2019-06-20T11:02:10.522Z,20.84
2019-06-20T11:04:40.471Z,20.95
2019-06-20T11:07:09.394Z,21.02
2019-06-20T11:09:39.578Z,21.16
2019-06-20T11:12:08.707Z,21.20
2019-06-20T11:14:38.695Z,21.24
2019-06-20T11:17:07.653Z,21.29
2019-06-20T11:19:38.140Z,21.34
2019-06-20T11:22:06.411Z,21.36
2019-06-20T11:24:37.422Z,21.35
2019-06-20T11:27:05.519Z,21.36
2019-06-20T11:29:34.087Z,21.39
2019-06-20T11:32:02.666Z,21.23
2019-06-20T11:34:31.274Z,21.14
2019-06-20T11:36:59.781Z,21.07
2019-06-20T11:39:28.294Z,21.06
2019-06-20T11:41:56.854Z,21.21
2019-06-20T11:44:25.430Z,21.41
2019-06-20T11:46:54.690Z,21.39
2019-06-20T11:49:23.221Z,21.35
2019-06-20T11:51:51.742Z,21.46
2019-06-20T11:54:20.348Z,21.48
2019-06-20T11:56:48.920Z,21.41
2019-06-20T11:59:17.510Z,21.47
2019-06-20T12:01:47.214Z,21.42
2019-06-20T12:04:16.200Z,21.32
2019-06-20T12:06:45.008Z,21.33
2019-06-20T12:09:13.540Z,21.31
2019-06-20T12:11:42.431Z,21.28
2019-06-20T12:14:11.107Z,21.24
2019-06-20T12:16:40.846Z,21.18
2019-06-20T12:19:09.982Z,21.15
2019-06-20T12:21:39.761Z,21.14
2019-06-20T12:24:08.868Z,21.17
2019-06-20T12:26:39.050Z,21.08
2019-06-20T12:29:08.123Z,21.10
2019-06-20T12:31:36.653Z,21.06
2019-06-20T12:34:05.288Z,21.15
2019-06-20T12:36:33.827Z,21.23
2019-06-20T12:39:02.372Z,21.31
2019-06-20T12:41:31.216Z,21.48
2019-06-20T12:44:00.091Z,21.85
2019-06-20T12:46:28.645Z,21.93
2019-06-20T12:48:57.214Z,21.84
2019-06-20T12:51:25.825Z,21.79
2019-06-20T12:53:54.435Z,21.78
2019-06-20T12:56:23.019Z,21.72
2019-06-20T12:58:51.559Z,21.57
2019-06-20T13:01:34.769Z,21.51
2019-06-20T13:03:50.639Z,21.37
2019-06-20T13:06:19.494Z,21.26
2019-06-20T13:08:49.417Z,21.25
2019-06-20T13:11:18.093Z,21.23
2019-06-20T13:13:46.669Z,21.28
2019-06-20T13:16:15.166Z,21.38
2019-06-20T13:18:44.643Z,21.47
2019-06-20T13:21:13.198Z,21.47
2019-06-20T13:23:43.147Z,21.53
2019-06-20T13:26:12.135Z,21.71
2019-06-20T13:28:59.190Z,21.99
2019-06-20T13:31:11.018Z,22.45
2019-06-20T13:33:40.869Z,22.68
2019-06-20T13:36:09.832Z,22.81
2019-06-20T13:38:39.902Z,22.75
2019-06-20T13:41:08.656Z,22.60
2019-06-20T13:43:37.426Z,22.46
2019-06-20T13:46:06.248Z,22.43
2019-06-20T13:48:34.790Z,22.31
2019-06-20T13:51:03.322Z,22.25
2019-06-20T13:53:31.851Z,22.26
2019-06-20T13:56:00.396Z,22.42
2019-06-20T13:58:29.264Z,22.50
2019-06-20T14:00:57.833Z,22.59
2019-06-20T14:03:26.657Z,22.61
2019-06-20T14:05:55.158Z,22.63
2019-06-20T14:08:23.775Z,23.11
2019-06-20T14:10:52.468Z,23.51
2019-06-20T14:13:21.700Z,23.92
2019-06-20T14:15:51.246Z,24.12
2019-06-20T14:18:20.045Z,24.26
2019-06-20T14:20:48.641Z,24.58
2019-06-20T14:23:17.364Z,25.05
2019-06-20T14:25:46.340Z,25.44
2019-06-20T14:28:14.978Z,25.56
2019-06-20T14:30:45.033Z,25.97
2019-06-20T14:33:14.154Z,26.65
2019-06-20T14:35:43.994Z,27.16
2019-06-20T14:38:13.209Z,27.72
2019-06-20T14:40:43.539Z,27.51
2019-06-20T14:43:12.308Z,27.61
2019-06-20T14:45:42.092Z,27.94
2019-06-20T14:48:11.286Z,28.84
2019-06-20T14:50:39.851Z,27.36
2019-06-20T14:53:08.414Z,26.17
2019-06-20T14:55:36.932Z,25.44
2019-06-20T14:58:05.510Z,24.82
2019-06-20T15:00:34.077Z,25.04
2019-06-20T15:03:02.642Z,24.52
2019-06-20T15:05:34.712Z,23.91
2019-06-20T15:08:01.995Z,23.64
2019-06-20T15:10:30.534Z,23.62
2019-06-20T15:12:59.122Z,23.44
2019-06-20T15:15:27.888Z,23.38
2019-06-20T15:17:58.246Z,24.99
2019-06-20T15:20:27.138Z,26.21
2019-06-20T15:22:56.630Z,25.39
2019-06-20T15:25:25.918Z,25.04
2019-06-20T15:27:55.404Z,24.34
2019-06-20T15:30:25.420Z,23.86
2019-06-20T15:33:05.900Z,23.62
2019-06-20T15:35:24.168Z,23.30
2019-06-20T15:37:53.772Z,23.21
2019-06-20T15:40:23.213Z,23.00
2019-06-20T15:42:53.493Z,22.86
2019-06-20T15:45:22.312Z,22.83
2019-06-20T15:47:50.930Z,22.78
2019-06-20T15:50:19.833Z,22.62
2019-06-20T15:52:48.788Z,22.42
2019-06-20T15:55:19.350Z,22.30
2019-06-20T15:57:47.987Z,22.19
2019-06-20T16:00:16.527Z,22.19
2019-06-20T16:02:45.495Z,22.15
2019-06-20T16:05:14.012Z,21.83
2019-06-20T16:07:42.845Z,21.61
2019-06-20T16:10:11.747Z,21.54
2019-06-20T16:12:40.339Z,21.57
2019-06-20T16:15:08.970Z,21.73
2019-06-20T16:17:37.517Z,21.97
2019-06-20T16:20:06.226Z,22.22
2019-06-20T16:22:34.842Z,22.43
2019-06-20T16:25:03.462Z,22.79
2019-06-20T16:27:31.941Z,23.19
2019-06-20T16:30:00.594Z,23.39
2019-06-20T16:32:29.447Z,23.66
2019-06-20T16:34:57.993Z,23.61
2019-06-20T16:37:26.625Z,23.47
2019-06-20T16:39:55.172Z,23.35
2019-06-20T16:42:23.777Z,23.08
2019-06-20T16:44:52.614Z,22.87
2019-06-20T16:47:21.498Z,22.74
2019-06-20T16:49:50.333Z,22.81
2019-06-20T16:52:19.164Z,22.80
2019-06-20T16:54:47.750Z,22.92
2019-06-20T16:57:16.663Z,22.89
2019-06-20T16:59:45.327Z,22.94
2019-06-20T17:02:13.843Z,23.17
2019-06-20T17:04:42.359Z,23.53
2019-06-20T17:07:10.919Z,23.78
2019-06-20T17:09:39.451Z,23.88
2019-06-20T17:12:11.054Z,23.83
2019-06-20T17:14:38.281Z,23.69
2019-06-20T17:17:07.169Z,23.61
2019-06-20T17:19:35.790Z,23.72
2019-06-20T17:22:04.320Z,23.66
2019-06-20T17:24:32.955Z,23.82
2019-06-20T17:27:02.038Z,23.84
2019-06-20T17:29:30.606Z,23.67
2019-06-20T17:31:59.161Z,23.77
2019-06-20T17:34:27.678Z,23.63
2019-06-20T17:36:56.651Z,23.59
2019-06-20T17:39:25.228Z,23.58
2019-06-20T17:41:55.439Z,23.58
2019-06-20T17:44:27.367Z,23.52
2019-06-20T17:46:54.536Z,23.49
2019-06-20T17:49:23.144Z,23.35
2019-06-20T17:51:51.717Z,23.17
2019-06-20T17:54:20.336Z,23.17
2019-06-20T17:56:48.812Z,23.20
2019-06-20T17:59:17.316Z,23.32
2019-06-20T18:01:45.855Z,23.33
2019-06-20T18:04:14.460Z,23.35
2019-06-20T18:06:43.232Z,23.31
2019-06-20T18:09:11.831Z,23.33
2019-06-20T18:11:40.398Z,23.29
2019-06-20T18:14:08.941Z,23.20
2019-06-20T18:16:37.809Z,23.21
2019-06-20T18:19:06.330Z,23.11
2019-06-20T18:21:34.971Z,23.05
2019-06-20T18:24:03.563Z,22.87
2019-06-20T18:26:32.394Z,22.61
2019-06-20T18:29:00.942Z,22.41
2019-06-20T18:31:29.504Z,22.02
2019-06-20T18:33:58.052Z,22.25
2019-06-20T18:36:26.569Z,22.16
2019-06-20T18:38:55.484Z,21.96
2019-06-20T18:41:23.996Z,21.94
2019-06-20T18:43:52.585Z,21.94
2019-06-20T18:46:21.479Z,21.96
2019-06-20T18:48:50.376Z,21.95
2019-06-20T18:51:18.975Z,21.89
2019-06-20T18:53:50.575Z,21.84
2019-06-20T18:56:18.042Z,21.74
2019-06-20T18:58:46.626Z,21.66
2019-06-20T19:01:15.205Z,21.61
2019-06-20T19:03:43.820Z,21.61
2019-06-20T19:06:12.349Z,21.57
2019-06-20T19:08:40.900Z,21.54
2019-06-20T19:11:09.567Z,21.48
2019-06-20T19:13:38.160Z,21.37
2019-06-20T19:16:06.746Z,21.30
2019-06-20T19:18:35.276Z,21.30
2019-06-20T19:21:03.936Z,21.33
2019-06-20T19:23:32.900Z,21.36
2019-06-20T19:26:01.763Z,21.32
2019-06-20T19:28:30.266Z,21.33
2019-06-20T19:30:58.899Z,21.36
2019-06-20T19:33:27.435Z,21.41
2019-06-20T19:35:55.928Z,21.41
2019-06-20T19:38:24.426Z,21.35
2019-06-20T19:40:53.043Z,21.37
2019-06-20T19:43:21.594Z,21.40
2019-06-20T19:45:50.199Z,21.40
2019-06-20T19:48:18.738Z,21.20
2019-06-20T19:50:47.662Z,21.09
2019-06-20T19:53:16.382Z,21.03
2019-06-20T19:55:44.918Z,21.01
2019-06-20T19:58:13.451Z,21.00
2019-06-20T20:00:41.935Z,20.98
2019-06-20T20:03:10.478Z,20.96
2019-06-20T20:05:39.317Z,20.95
2019-06-20T20:08:07.909Z,20.95
2019-06-20T20:10:46.449Z,20.96
2019-06-20T20:13:15.528Z,20.98
2019-06-20T20:15:44.429Z,20.98
2019-06-20T20:18:13.321Z,20.96
2019-06-20T20:20:41.879Z,20.95
2019-06-20T20:23:10.896Z,20.92
2019-06-20T20:25:39.452Z,20.92
2019-06-20T20:28:08.009Z,20.96
2019-06-20T20:30:36.663Z,20.87
2019-06-20T20:33:05.271Z,20.84
2019-06-20T20:35:35.808Z,20.79
2019-06-20T20:38:04.105Z,20.80
2019-06-20T20:40:32.621Z,20.81
2019-06-20T20:43:01.213Z,20.64
2019-06-20T20:45:29.723Z,20.46
2019-06-20T20:47:58.312Z,20.31
2019-06-20T20:50:26.850Z,20.24
2019-06-20T20:52:55.342Z,20.18
2019-06-20T20:55:24.046Z,20.12
2019-06-20T20:57:52.599Z,20.05
2019-06-20T21:00:25.765Z,19.91
2019-06-20T21:02:54.360Z,19.80
2019-06-20T21:05:22.883Z,19.80
2019-06-20T21:07:51.451Z,19.76
2019-06-20T21:10:20.108Z,19.68
2019-06-20T21:12:48.566Z,19.57
2019-06-20T21:15:17.090Z,19.53
2019-06-20T21:17:45.570Z,19.49
2019-06-20T21:20:14.488Z,19.50
2019-06-20T21:22:43.036Z,19.37
2019-06-20T21:25:12.066Z,19.32
2019-06-20T21:27:40.660Z,19.24
2019-06-20T21:30:09.347Z,19.21
2019-06-20T21:32:38.171Z,19.24
2019-06-20T21:35:06.726Z,19.15
2019-06-20T21:37:35.245Z,19.16
2019-06-20T21:40:04.018Z,19.10
2019-06-20T21:42:32.809Z,19.08
2019-06-20T21:45:01.563Z,19.03
2019-06-20T21:47:30.010Z,18.97
2019-06-20T21:49:58.575Z,18.96
2019-06-20T21:52:27.113Z,18.89
2019-06-20T21:54:55.794Z,18.89
2019-06-20T21:57:24.351Z,18.89
2019-06-20T21:59:52.854Z,18.78
2019-06-20T22:02:21.378Z,18.74
2019-06-20T22:04:54.460Z,18.75
2019-06-20T22:07:20.198Z,18.73
2019-06-20T22:09:49.005Z,18.65
2019-06-20T22:12:17.598Z,18.61
2019-06-20T22:14:46.161Z,18.55
2019-06-20T22:17:14.677Z,18.49
2019-06-20T22:19:43.199Z,18.49
2019-06-20T22:22:11.780Z,18.57
2019-06-20T22:24:40.343Z,18.60
2019-06-20T22:27:09.043Z,18.65
2019-06-20T22:29:37.551Z,18.62
2019-06-20T22:32:06.330Z,18.61
2019-06-20T22:34:34.892Z,18.48
2019-06-20T22:37:03.448Z,18.47
2019-06-20T22:39:31.983Z,18.46
2019-06-20T22:42:00.494Z,18.39
2019-06-20T22:44:29.082Z,18.38
2019-06-20T22:46:57.600Z,18.38
2019-06-20T22:49:26.127Z,18.33
2019-06-20T22:51:54.764Z,18.26
2019-06-20T22:54:23.295Z,18.26
2019-06-20T22:56:51.925Z,18.26
2019-06-20T22:59:20.362Z,18.21
2019-06-20T23:01:48.978Z,18.16
2019-06-20T23:04:17.456Z,18.19
2019-06-20T23:06:55.823Z,18.20
2019-06-20T23:09:16.698Z,18.23
2019-06-20T23:11:45.459Z,18.31
2019-06-20T23:14:14.080Z,18.17
2019-06-20T23:16:42.558Z,18.22
2019-06-20T23:19:11.083Z,18.27
2019-06-20T23:21:39.675Z,18.20
2019-06-20T23:24:08.218Z,18.11
2019-06-20T23:26:36.706Z,18.04
2019-06-20T23:29:23.497Z,17.99
2019-06-20T23:31:52.812Z,17.97
2019-06-20T23:34:21.323Z,18.05
2019-06-20T23:36:49.865Z,18.04
2019-06-20T23:39:18.389Z,18.10
2019-06-20T23:41:46.931Z,18.15
2019-06-20T23:44:15.471Z,18.11
2019-06-20T23:46:44.490Z,18.03
2019-06-20T23:49:13.413Z,17.85
2019-06-20T23:51:56.432Z,17.79
2019-06-20T23:54:25.138Z,17.77
2019-06-20T23:56:53.696Z,17.79
2019-06-20T23:59:22.267Z,17.78
